sensor_id;sensor_type;location;lat;lon;timestamp;pressure;altitude;pressure_sealevel;temperature;humidity
10145;BME280;5113;41.822;23.564;2023-04-19T00:00:06;-11179.47;;;8.86;100.00
10145;BME280;5113;41.822;23.564;2023-04-19T00:03:13;-11183.53;;;9.01;100.00
10145;BME280;5113;41.822;23.564;2023-04-19T00:06:21;-11183.97;;;9.03;100.00
10145;BME280;5113;41.822;23.564;2023-04-19T00:09:29;-11187.06;;;9.14;100.00
10145;BME280;5113;41.822;23.564;2023-04-19T00:12:36;-11187.91;;;9.17;100.00
10145;BME280;5113;41.822;23.564;2023-04-19T00:15:42;-11190.56;;;9.26;100.00
10145;BME280;5113;41.822;23.564;2023-04-19T00:18:49;-11189.03;;;9.21;100.00
10145;BME280;5113;41.822;23.564;2023-04-19T00:21:55;-11183.53;;;9.01;100.00
10145;BME280;5113;41.822;23.564;2023-04-19T00:25:04;-11185.22;;;9.07;100.00
10145;BME280;5113;41.822;23.564;2023-04-19T00:28:10;-11183.25;;;9.00;100.00
10145;BME280;5113;41.822;23.564;2023-04-19T00:31:16;-11189.72;;;9.23;100.00
10145;BME280;5113;41.822;23.564;2023-04-19T00:34:23;-11183.97;;;9.03;100.00
10145;BME280;5113;41.822;23.564;2023-04-19T00:37:29;-11176.22;;;8.75;100.00
10145;BME280;5113;41.822;23.564;2023-04-19T00:40:37;-11179.88;;;8.88;100.00
10145;BME280;5113;41.822;23.564;2023-04-19T00:43:44;-11181.84;;;8.95;100.00
10145;BME280;5113;41.822;23.564;2023-04-19T00:46:50;-11181.44;;;8.93;100.00
10145;BME280;5113;41.822;23.564;2023-04-19T00:49:56;-11178.75;;;8.84;100.00
10145;BME280;5113;41.822;23.564;2023-04-19T00:53:03;-11171.75;;;8.58;100.00
10145;BME280;5113;41.822;23.564;2023-04-19T00:56:12;-11177.06;;;8.78;100.00
10145;BME280;5113;41.822;23.564;2023-04-19T00:59:19;-11180.59;;;8.90;100.00
10145;BME280;5113;41.822;23.564;2023-04-19T01:02:25;-11176.22;;;8.75;100.00
10145;BME280;5113;41.822;23.564;2023-04-19T01:05:32;-11175.94;;;8.74;100.00
10145;BME280;5113;41.822;23.564;2023-04-19T01:08:38;-11183.13;;;9.00;100.00
10145;BME280;5113;41.822;23.564;2023-04-19T01:11:46;-11182.56;;;8.98;100.00
10145;BME280;5113;41.822;23.564;2023-04-19T01:14:52;-11177.63;;;8.80;100.00
10145;BME280;5113;41.822;23.564;2023-04-19T01:17:58;-11179.19;;;8.85;100.00
10145;BME280;5113;41.822;23.564;2023-04-19T01:21:06;-11178.75;;;8.84;100.00
10145;BME280;5113;41.822;23.564;2023-04-19T01:24:15;-11179.03;;;8.85;100.00
10145;BME280;5113;41.822;23.564;2023-04-19T01:27:21;-11178.75;;;8.84;100.00
10145;BME280;5113;41.822;23.564;2023-04-19T01:30:27;-11175.66;;;8.73;100.00
10145;BME280;5113;41.822;23.564;2023-04-19T01:33:33;-11179.19;;;8.85;100.00
10145;BME280;5113;41.822;23.564;2023-04-19T01:36:40;-11177.91;;;8.81;100.00
10145;BME280;5113;41.822;23.564;2023-04-19T01:39:47;-11184.94;;;9.06;100.00
10145;BME280;5113;41.822;23.564;2023-04-19T01:42:53;-11181.72;;;8.94;100.00
10145;BME280;5113;41.822;23.564;2023-04-19T01:46:00;-11178.63;;;8.83;100.00
10145;BME280;5113;41.822;23.564;2023-04-19T01:49:06;-11178.63;;;8.83;100.00
10145;BME280;5113;41.822;23.564;2023-04-19T01:52:12;-11184.09;;;9.03;100.00
10145;BME280;5113;41.822;23.564;2023-04-19T01:55:19;-11184.09;;;9.03;100.00
10145;BME280;5113;41.822;23.564;2023-04-19T01:58:25;-11186.50;;;9.12;100.00
10145;BME280;5113;41.822;23.564;2023-04-19T02:01:32;-11185.66;;;9.09;100.00
10145;BME280;5113;41.822;23.564;2023-04-19T02:04:38;-11190.44;;;9.26;100.00
10145;BME280;5113;41.822;23.564;2023-04-19T02:07:43;-11192.97;;;9.35;100.00
10145;BME280;5113;41.822;23.564;2023-04-19T02:10:51;-11182.13;;;8.96;100.00
10145;BME280;5113;41.822;23.564;2023-04-19T02:13:57;-11186.34;;;9.11;100.00
10145;BME280;5113;41.822;23.564;2023-04-19T02:17:03;-11193.94;;;9.39;100.00
10145;BME280;5113;41.822;23.564;2023-04-19T02:20:10;-11184.38;;;9.04;100.00
10145;BME280;5113;41.822;23.564;2023-04-19T02:23:16;-11187.19;;;9.14;100.00
10145;BME280;5113;41.822;23.564;2023-04-19T02:26:24;-11192.25;;;9.33;100.00
10145;BME280;5113;41.822;23.564;2023-04-19T02:29:31;-11181.16;;;8.92;100.00
10145;BME280;5113;41.822;23.564;2023-04-19T02:32:38;-11175.38;;;8.72;100.00
10145;BME280;5113;41.822;23.564;2023-04-19T02:35:44;-11182.84;;;8.99;100.00
10145;BME280;5113;41.822;23.564;2023-04-19T02:38:50;-11186.78;;;9.13;100.00
10145;BME280;5113;41.822;23.564;2023-04-19T02:41:57;-11185.66;;;9.09;100.00
10145;BME280;5113;41.822;23.564;2023-04-19T02:45:06;-11187.34;;;9.15;100.00
10145;BME280;5113;41.822;23.564;2023-04-19T02:48:12;-11189.88;;;9.24;100.00
10145;BME280;5113;41.822;23.564;2023-04-19T02:51:18;-11191.69;;;9.31;100.00
10145;BME280;5113;41.822;23.564;2023-04-19T02:54:24;-11191.13;;;9.28;100.00
10145;BME280;5113;41.822;23.564;2023-04-19T02:57:32;-11190.84;;;9.27;100.00
10145;BME280;5113;41.822;23.564;2023-04-19T03:00:38;-11178.75;;;8.84;100.00
10145;BME280;5113;41.822;23.564;2023-04-19T03:03:44;-11185.78;;;9.09;100.00
10145;BME280;5113;41.822;23.564;2023-04-19T03:06:51;-11187.19;;;9.14;100.00
10145;BME280;5113;41.822;23.564;2023-04-19T03:09:57;-11187.63;;;9.16;100.00
10145;BME280;5113;41.822;23.564;2023-04-19T03:13:05;-11178.19;;;8.82;100.00
10145;BME280;5113;41.822;23.564;2023-04-19T03:16:11;-11182.97;;;8.99;100.00
10145;BME280;5113;41.822;23.564;2023-04-19T03:19:17;-11182.41;;;8.97;100.00
10145;BME280;5113;41.822;23.564;2023-04-19T03:22:23;-11177.34;;;8.79;100.00
10145;BME280;5113;41.822;23.564;2023-04-19T03:25:29;-11172.88;;;8.63;100.00
10145;BME280;5113;41.822;23.564;2023-04-19T03:28:38;-11178.06;;;8.81;100.00
10145;BME280;5113;41.822;23.564;2023-04-19T03:31:44;-11182.84;;;8.99;100.00
10145;BME280;5113;41.822;23.564;2023-04-19T03:34:51;-11171.88;;;8.59;100.00
10145;BME280;5113;41.822;23.564;2023-04-19T03:37:57;-11182.13;;;8.96;100.00
10145;BME280;5113;41.822;23.564;2023-04-19T03:41:03;-11179.03;;;8.85;100.00
10145;BME280;5113;41.822;23.564;2023-04-19T03:44:11;-11175.25;;;8.71;100.00
10145;BME280;5113;41.822;23.564;2023-04-19T03:47:18;-11176.22;;;8.75;100.00
10145;BME280;5113;41.822;23.564;2023-04-19T03:50:24;-11181.84;;;8.95;100.00
10145;BME280;5113;41.822;23.564;2023-04-19T03:53:30;-11183.53;;;9.01;100.00
10145;BME280;5113;41.822;23.564;2023-04-19T03:56:36;-11182.41;;;8.97;100.00
10145;BME280;5113;41.822;23.564;2023-04-19T03:59:44;-11180.03;;;8.88;100.00
10145;BME280;5113;41.822;23.564;2023-04-19T04:02:49;-11176.94;;;8.77;100.00
10145;BME280;5113;41.822;23.564;2023-04-19T04:05:56;-11180.72;;;8.91;100.00
10145;BME280;5113;41.822;23.564;2023-04-19T04:09:03;-11181.56;;;8.94;100.00
10145;BME280;5113;41.822;23.564;2023-04-19T04:12:09;-11182.13;;;8.96;100.00
10145;BME280;5113;41.822;23.564;2023-04-19T04:15:18;-11178.06;;;8.81;100.00
10145;BME280;5113;41.822;23.564;2023-04-19T04:18:24;-11176.78;;;8.77;100.00
10145;BME280;5113;41.822;23.564;2023-04-19T04:21:30;-11176.94;;;8.77;100.00
10145;BME280;5113;41.822;23.564;2023-04-19T04:24:37;-11181.28;;;8.93;100.00
10145;BME280;5113;41.822;23.564;2023-04-19T04:27:45;-11182.28;;;8.97;100.00
10145;BME280;5113;41.822;23.564;2023-04-19T04:30:54;-11179.31;;;8.86;100.00
10145;BME280;5113;41.822;23.564;2023-04-19T04:34:01;-11180.16;;;8.89;100.00
10145;BME280;5113;41.822;23.564;2023-04-19T04:37:07;-11175.94;;;8.74;100.00
10145;BME280;5113;41.822;23.564;2023-04-19T04:40:14;-11180.88;;;8.91;100.00
10145;BME280;5113;41.822;23.564;2023-04-19T04:43:21;-11178.75;;;8.84;100.00
10145;BME280;5113;41.822;23.564;2023-04-19T04:46:29;-11186.63;;;9.12;100.00
10145;BME280;5113;41.822;23.564;2023-04-19T04:49:35;-11173.16;;;8.64;100.00
10145;BME280;5113;41.822;23.564;2023-04-19T04:52:41;-11177.34;;;8.79;100.00
10145;BME280;5113;41.822;23.564;2023-04-19T04:55:47;-11178.34;;;8.82;100.00
10145;BME280;5113;41.822;23.564;2023-04-19T04:58:53;-11179.31;;;8.86;100.00
10145;BME280;5113;41.822;23.564;2023-04-19T05:02:02;-11181.72;;;8.94;100.00
10145;BME280;5113;41.822;23.564;2023-04-19T05:05:08;-11180.44;;;8.90;100.00
10145;BME280;5113;41.822;23.564;2023-04-19T05:08:16;-11189.72;;;9.23;100.00
10145;BME280;5113;41.822;23.564;2023-04-19T05:11:22;-11188.03;;;9.17;100.00
10145;BME280;5113;41.822;23.564;2023-04-19T05:14:28;-11186.63;;;9.12;100.00
10145;BME280;5113;41.822;23.564;2023-04-19T05:17:35;-11187.75;;;9.16;100.00
10145;BME280;5113;41.822;23.564;2023-04-19T05:20:41;-11190.72;;;9.27;100.00
10145;BME280;5113;41.822;23.564;2023-04-19T05:23:50;-11191.97;;;9.32;100.00
10145;BME280;5113;41.822;23.564;2023-04-19T05:26:57;-11191.41;;;9.30;100.00
10145;BME280;5113;41.822;23.564;2023-04-19T05:30:04;-11196.75;;;9.49;100.00
10145;BME280;5113;41.822;23.564;2023-04-19T05:33:12;-11196.75;;;9.49;100.00
10145;BME280;5113;41.822;23.564;2023-04-19T05:36:18;-11195.50;;;9.44;100.00
10145;BME280;5113;41.822;23.564;2023-04-19T05:39:24;-11196.47;;;9.48;100.00
10145;BME280;5113;41.822;23.564;2023-04-19T05:42:31;-11206.03;;;9.82;100.00
10145;BME280;5113;41.822;23.564;2023-04-19T05:45:38;-11209.56;;;9.95;100.00
10145;BME280;5113;41.822;23.564;2023-04-19T05:48:45;-11195.78;;;9.45;100.00
10145;BME280;5113;41.822;23.564;2023-04-19T05:51:52;-11203.78;;;9.74;100.00
10145;BME280;5113;41.822;23.564;2023-04-19T05:55:00;-11200.97;;;9.64;100.00
10145;BME280;5113;41.822;23.564;2023-04-19T05:58:06;-11203.66;;;9.74;100.00
10145;BME280;5113;41.822;23.564;2023-04-19T06:01:12;-11232.47;;;10.78;100.00
10145;BME280;5113;41.822;23.564;2023-04-19T06:04:20;-11208.72;;;9.92;100.00
10145;BME280;5113;41.822;23.564;2023-04-19T06:07:32;-11213.22;;;10.08;100.00
10145;BME280;5113;41.822;23.564;2023-04-19T06:10:47;-11206.03;;;9.82;100.00
10145;BME280;5113;41.822;23.564;2023-04-19T06:14:01;-11205.63;;;9.81;100.00
10145;BME280;5113;41.822;23.564;2023-04-19T06:17:08;-11203.50;;;9.73;100.00
10145;BME280;5113;41.822;23.564;2023-04-19T06:20:16;-11222.34;;;10.41;100.00
10145;BME280;5113;41.822;23.564;2023-04-19T06:23:22;-11209.97;;;9.97;100.00
10145;BME280;5113;41.822;23.564;2023-04-19T06:26:29;-11215.59;;;10.17;100.00
10145;BME280;5113;41.822;23.564;2023-04-19T06:29:35;-11225.59;;;10.53;100.00
10145;BME280;5113;41.822;23.564;2023-04-19T06:32:42;-11218.13;;;10.26;100.00
10145;BME280;5113;41.822;23.564;2023-04-19T06:35:50;-11220.25;;;10.34;100.00
10145;BME280;5113;41.822;23.564;2023-04-19T06:38:56;-11226.00;;;10.54;100.00
10145;BME280;5113;41.822;23.564;2023-04-19T06:42:02;-11242.47;;;11.14;100.00
10145;BME280;5113;41.822;23.564;2023-04-19T06:45:10;-11259.50;;;11.75;100.00
10145;BME280;5113;41.822;23.564;2023-04-19T06:48:16;-11245.16;;;11.23;100.00
10145;BME280;5113;41.822;23.564;2023-04-19T06:51:24;-11254.84;;;11.58;100.00
10145;BME280;5113;41.822;23.564;2023-04-19T06:54:30;-11259.34;;;11.75;100.00
10145;BME280;5113;41.822;23.564;2023-04-19T06:57:36;-11245.72;;;11.25;100.00
10145;BME280;5113;41.822;23.564;2023-04-19T07:00:42;-11261.19;;;11.81;100.00
10145;BME280;5113;41.822;23.564;2023-04-19T07:03:49;-11234.31;;;10.84;100.00
10145;BME280;5113;41.822;23.564;2023-04-19T07:06:57;-11253.31;;;11.53;100.00
10145;BME280;5113;41.822;23.564;2023-04-19T07:10:04;-11246.28;;;11.28;100.00
10145;BME280;5113;41.822;23.564;2023-04-19T07:13:10;-11235.31;;;10.88;100.00
10145;BME280;5113;41.822;23.564;2023-04-19T07:16:16;-11233.75;;;10.82;100.00
10145;BME280;5113;41.822;23.564;2023-04-19T07:19:23;-11243.59;;;11.18;100.00
10145;BME280;5113;41.822;23.564;2023-04-19T07:22:31;-11236.44;;;10.92;100.00
10145;BME280;5113;41.822;23.564;2023-04-19T07:25:38;-11260.06;;;11.77;100.00
10145;BME280;5113;41.822;23.564;2023-04-19T07:28:44;-11230.94;;;10.72;100.00
10145;BME280;5113;41.822;23.564;2023-04-19T07:31:51;-11253.59;;;11.54;100.00
10145;BME280;5113;41.822;23.564;2023-04-19T07:34:59;-11248.94;;;11.37;100.00
10145;BME280;5113;41.822;23.564;2023-04-19T07:38:06;-11259.91;;;11.77;100.00
10145;BME280;5113;41.822;23.564;2023-04-19T07:41:13;-11229.94;;;10.69;100.00
10145;BME280;5113;41.822;23.564;2023-04-19T07:44:19;-11262.59;;;11.86;100.00
10145;BME280;5113;41.822;23.564;2023-04-19T07:47:25;-11284.13;;;12.64;100.00
10145;BME280;5113;41.822;23.564;2023-04-19T07:50:32;-11274.84;;;12.31;100.00
10145;BME280;5113;41.822;23.564;2023-04-19T07:53:40;-11268.50;;;12.08;100.00
10145;BME280;5113;41.822;23.564;2023-04-19T07:56:47;-11287.63;;;12.77;100.00
10145;BME280;5113;41.822;23.564;2023-04-19T07:59:53;-11280.03;;;12.49;100.00
10145;BME280;5113;41.822;23.564;2023-04-19T08:03:02;-11271.88;;;12.20;100.00
10145;BME280;5113;41.822;23.564;2023-04-19T08:06:09;-11271.88;;;12.20;100.00
10145;BME280;5113;41.822;23.564;2023-04-19T08:09:19;-11262.88;;;11.87;100.00
10145;BME280;5113;41.822;23.564;2023-04-19T08:12:26;-11282.84;;;12.60;100.00
10145;BME280;5113;41.822;23.564;2023-04-19T08:15:42;-11277.66;;;12.41;100.00
10145;BME280;5113;41.822;23.564;2023-04-19T08:18:51;-11317.78;;;13.85;96.39
10145;BME280;5113;41.822;23.564;2023-04-19T08:21:57;-11336.94;;;14.54;86.77
10145;BME280;5113;41.822;23.564;2023-04-19T08:25:06;-11318.47;;;13.88;88.86
10145;BME280;5113;41.822;23.564;2023-04-19T08:28:13;-11325.38;;;14.13;87.32
10145;BME280;5113;41.822;23.564;2023-04-19T08:31:19;-11366.50;;;15.61;86.02
10145;BME280;5113;41.822;23.564;2023-04-19T08:34:25;-11363.53;;;15.50;83.67
10145;BME280;5113;41.822;23.564;2023-04-19T08:37:32;-11396.25;;;16.68;76.12
10145;BME280;5113;41.822;23.564;2023-04-19T08:40:45;-11381.16;;;16.14;79.60
10145;BME280;5113;41.822;23.564;2023-04-19T08:43:51;-11398.91;;;16.78;78.41
10145;BME280;5113;41.822;23.564;2023-04-19T08:46:59;-11387.06;;;16.35;79.97
10145;BME280;5113;41.822;23.564;2023-04-19T08:50:07;-11361.56;;;15.43;79.26
10145;BME280;5113;41.822;23.564;2023-04-19T08:53:33;-11335.09;;;14.48;82.78
10145;BME280;5113;41.822;23.564;2023-04-19T08:56:41;-11385.09;;;16.28;73.31
10145;BME280;5113;41.822;23.564;2023-04-19T08:59:47;-11361.44;;;15.43;71.32
10145;BME280;5113;41.822;23.564;2023-04-19T09:02:59;-11375.53;;;15.94;71.11
10145;BME280;5113;41.822;23.564;2023-04-19T09:06:06;-11405.53;;;17.02;66.54
10145;BME280;5113;41.822;23.564;2023-04-19T09:09:15;-11381.59;;;16.15;70.97
10145;BME280;5113;41.822;23.564;2023-04-19T09:12:25;-11363.97;;;15.52;72.07
10145;BME280;5113;41.822;23.564;2023-04-19T09:15:36;-11365.66;;;15.58;71.79
10145;BME280;5113;41.822;23.564;2023-04-19T09:18:52;-11340.31;;;14.67;77.63
10145;BME280;5113;41.822;23.564;2023-04-19T09:22:15;-11335.50;;;14.49;80.78
10145;BME280;5113;41.822;23.564;2023-04-19T09:25:24;-11349.19;;;14.99;77.92
10145;BME280;5113;41.822;23.564;2023-04-19T09:28:35;-11356.38;;;15.25;75.42
10145;BME280;5113;41.822;23.564;2023-04-19T09:31:55;-11323.41;;;14.06;79.14
10145;BME280;5113;41.822;23.564;2023-04-19T09:35:02;-11343.13;;;14.77;77.09
10145;BME280;5113;41.822;23.564;2023-04-19T09:38:09;-11346.38;;;14.89;75.00
10145;BME280;5113;41.822;23.564;2023-04-19T09:41:16;-11377.06;;;15.99;69.52
10145;BME280;5113;41.822;23.564;2023-04-19T09:44:24;-11352.97;;;15.12;68.14
10145;BME280;5113;41.822;23.564;2023-04-19T09:47:33;-11374.97;;;15.92;66.11
10145;BME280;5113;41.822;23.564;2023-04-19T09:50:55;-11374.25;;;15.89;69.04
10145;BME280;5113;41.822;23.564;2023-04-19T09:54:09;-11362.84;;;15.48;68.17
10145;BME280;5113;41.822;23.564;2023-04-19T09:57:15;-11382.44;;;16.18;67.46
10145;BME280;5113;41.822;23.564;2023-04-19T10:00:23;-11365.81;;;15.59;67.27
10145;BME280;5113;41.822;23.564;2023-04-19T10:03:33;-11366.09;;;15.60;63.10
10145;BME280;5113;41.822;23.564;2023-04-19T10:06:40;-11351.44;;;15.07;62.89
10145;BME280;5113;41.822;23.564;2023-04-19T10:10:07;-11376.38;;;15.97;65.45
10145;BME280;5113;41.822;23.564;2023-04-19T10:13:24;-11381.16;;;16.14;60.53
10145;BME280;5113;41.822;23.564;2023-04-19T10:16:33;-11341.16;;;14.70;67.36
10145;BME280;5113;41.822;23.564;2023-04-19T10:19:40;-11377.91;;;16.02;62.38
10145;BME280;5113;41.822;23.564;2023-04-19T10:22:46;-11383.41;;;16.22;59.47
10145;BME280;5113;41.822;23.564;2023-04-19T10:25:55;-11383.41;;;16.22;57.20
10145;BME280;5113;41.822;23.564;2023-04-19T10:29:01;-11397.50;;;16.73;58.02
10145;BME280;5113;41.822;23.564;2023-04-19T10:32:12;-11415.12;;;17.36;56.44
10145;BME280;5113;41.822;23.564;2023-04-19T10:35:20;-11411.47;;;17.23;55.82
10145;BME280;5113;41.822;23.564;2023-04-19T10:38:37;-11396.38;;;16.69;58.69
10145;BME280;5113;41.822;23.564;2023-04-19T10:41:56;-11382.84;;;16.20;58.91
10145;BME280;5113;41.822;23.564;2023-04-19T10:45:31;-11415.25;;;17.37;55.33
10145;BME280;5113;41.822;23.564;2023-04-19T10:48:40;-11412.88;;;17.28;52.54
10145;BME280;5113;41.822;23.564;2023-04-19T10:51:49;-11394.13;;;16.61;53.55
10145;BME280;5113;41.822;23.564;2023-04-19T10:54:56;-11397.50;;;16.73;54.59
10145;BME280;5113;41.822;23.564;2023-04-19T10:58:03;-11393.13;;;16.57;56.34
10145;BME280;5113;41.822;23.564;2023-04-19T11:01:31;-11391.16;;;16.50;55.98
10145;BME280;5113;41.822;23.564;2023-04-19T11:05:09;-11392.72;;;16.56;54.58
10145;BME280;5113;41.822;23.564;2023-04-19T11:08:21;-11404.28;;;16.97;53.11
10145;BME280;5113;41.822;23.564;2023-04-19T11:11:27;-11393.13;;;16.57;52.94
10145;BME280;5113;41.822;23.564;2023-04-19T11:14:35;-11387.34;;;16.36;55.36
10145;BME280;5113;41.822;23.564;2023-04-19T11:17:41;-11392.44;;;16.55;53.98
10145;BME280;5113;41.822;23.564;2023-04-19T11:20:53;-11399.19;;;16.79;53.30
10145;BME280;5113;41.822;23.564;2023-04-19T11:24:08;-11411.88;;;17.25;55.47
10145;BME280;5113;41.822;23.564;2023-04-19T11:27:14;-11422.31;;;17.62;55.20
10145;BME280;5113;41.822;23.564;2023-04-19T11:30:21;-11421.75;;;17.60;51.29
10145;BME280;5113;41.822;23.564;2023-04-19T11:33:32;-11435.69;;;18.10;51.68
10145;BME280;5113;41.822;23.564;2023-04-19T11:36:48;-11406.25;;;17.04;52.74
10145;BME280;5113;41.822;23.564;2023-04-19T11:39:54;-11404.69;;;16.99;57.14
10145;BME280;5113;41.822;23.564;2023-04-19T11:43:02;-11382.56;;;16.19;59.65
10145;BME280;5113;41.822;23.564;2023-04-19T11:46:10;-11388.19;;;16.39;61.78
10145;BME280;5113;41.822;23.564;2023-04-19T11:49:24;-11362.13;;;15.45;64.17
10145;BME280;5113;41.822;23.564;2023-04-19T11:52:34;-11364.53;;;15.54;66.32
10145;BME280;5113;41.822;23.564;2023-04-19T11:55:48;-11356.66;;;15.26;68.29
10145;BME280;5113;41.822;23.564;2023-04-19T11:58:57;-11361.72;;;15.44;70.99
10145;BME280;5113;41.822;23.564;2023-04-19T12:02:07;-11391.03;;;16.49;68.30
10145;BME280;5113;41.822;23.564;2023-04-19T12:05:14;-11420.63;;;17.56;62.41
10145;BME280;5113;41.822;23.564;2023-04-19T12:08:33;-11442.34;;;18.34;60.94
10145;BME280;5113;41.822;23.564;2023-04-19T12:11:44;-11415.12;;;17.36;61.00
10145;BME280;5113;41.822;23.564;2023-04-19T12:14:51;-11419.50;;;17.52;60.91
10145;BME280;5113;41.822;23.564;2023-04-19T12:17:58;-11416.53;;;17.41;60.56
10145;BME280;5113;41.822;23.564;2023-04-19T12:21:05;-11416.66;;;17.42;58.72
10145;BME280;5113;41.822;23.564;2023-04-19T12:24:15;-11401.72;;;16.88;60.75
10145;BME280;5113;41.822;23.564;2023-04-19T12:27:21;-11380.47;;;16.11;63.20
10145;BME280;5113;41.822;23.564;2023-04-19T12:30:29;-11396.38;;;16.69;61.74
10145;BME280;5113;41.822;23.564;2023-04-19T12:33:36;-11387.78;;;16.38;63.29
10145;BME280;5113;41.822;23.564;2023-04-19T12:36:42;-11386.78;;;16.34;64.31
10145;BME280;5113;41.822;23.564;2023-04-19T12:39:49;-11379.47;;;16.08;64.42
10145;BME280;5113;41.822;23.564;2023-04-19T12:42:59;-11369.88;;;15.73;62.70
10145;BME280;5113;41.822;23.564;2023-04-19T12:46:05;-11358.75;;;15.33;65.30
10145;BME280;5113;41.822;23.564;2023-04-19T12:49:11;-11357.63;;;15.29;65.46
10145;BME280;5113;41.822;23.564;2023-04-19T12:52:18;-11366.50;;;15.61;63.79
10145;BME280;5113;41.822;23.564;2023-04-19T12:55:26;-11362.28;;;15.46;64.87
10145;BME280;5113;41.822;23.564;2023-04-19T12:58:32;-11352.00;;;15.09;64.16
10145;BME280;5113;41.822;23.564;2023-04-19T13:01:39;-11350.44;;;15.03;64.16
10145;BME280;5113;41.822;23.564;2023-04-19T13:04:45;-11356.94;;;15.27;63.73
10145;BME280;5113;41.822;23.564;2023-04-19T13:07:52;-11338.75;;;14.61;64.27
10145;BME280;5113;41.822;23.564;2023-04-19T13:10:59;-11328.63;;;14.25;66.23
10145;BME280;5113;41.822;23.564;2023-04-19T13:14:06;-11347.06;;;14.91;67.02
10145;BME280;5113;41.822;23.564;2023-04-19T13:17:12;-11362.28;;;15.46;64.22
10145;BME280;5113;41.822;23.564;2023-04-19T13:20:18;-11356.66;;;15.26;65.54
10145;BME280;5113;41.822;23.564;2023-04-19T13:23:24;-11353.25;;;15.13;67.94
10145;BME280;5113;41.822;23.564;2023-04-19T13:26:32;-11338.63;;;14.61;69.23
10145;BME280;5113;41.822;23.564;2023-04-19T13:29:39;-11382.84;;;16.20;66.60
10145;BME280;5113;41.822;23.564;2023-04-19T13:32:45;-11336.94;;;14.54;70.00
10145;BME280;5113;41.822;23.564;2023-04-19T13:35:51;-11341.16;;;14.70;70.27
10145;BME280;5113;41.822;23.564;2023-04-19T13:38:57;-11339.03;;;14.62;70.19
10145;BME280;5113;41.822;23.564;2023-04-19T13:42:06;-11335.78;;;14.50;69.35
10145;BME280;5113;41.822;23.564;2023-04-19T13:45:13;-11354.38;;;15.17;65.40
10145;BME280;5113;41.822;23.564;2023-04-19T13:48:19;-11353.53;;;15.14;66.84
10145;BME280;5113;41.822;23.564;2023-04-19T13:51:25;-11327.91;;;14.22;70.88
10145;BME280;5113;41.822;23.564;2023-04-19T13:54:50;-11341.44;;;14.71;69.31
10145;BME280;5113;41.822;23.564;2023-04-19T13:57:58;-11333.41;;;14.42;70.86
10145;BME280;5113;41.822;23.564;2023-04-19T14:01:04;-11347.91;;;14.94;69.27
10145;BME280;5113;41.822;23.564;2023-04-19T14:04:11;-11347.34;;;14.92;70.10
10145;BME280;5113;41.822;23.564;2023-04-19T14:07:17;-11358.06;;;15.31;68.36
10145;BME280;5113;41.822;23.564;2023-04-19T14:10:23;-11347.50;;;14.93;68.20
10145;BME280;5113;41.822;23.564;2023-04-19T14:13:31;-11351.00;;;15.05;69.15
10145;BME280;5113;41.822;23.564;2023-04-19T14:16:37;-11360.31;;;15.39;68.44
10145;BME280;5113;41.822;23.564;2023-04-19T14:19:43;-11363.69;;;15.51;79.68
10145;BME280;5113;41.822;23.564;2023-04-19T14:22:49;-11358.19;;;15.31;79.11
10145;BME280;5113;41.822;23.564;2023-04-19T14:25:55;-11335.22;;;14.48;79.63
10145;BME280;5113;41.822;23.564;2023-04-19T14:29:03;-11335.09;;;14.48;80.14
10145;BME280;5113;41.822;23.564;2023-04-19T14:32:10;-11323.25;;;14.05;84.71
10145;BME280;5113;41.822;23.564;2023-04-19T14:35:29;-11341.28;;;14.70;79.41
10145;BME280;5113;41.822;23.564;2023-04-19T14:38:35;-11338.75;;;14.61;78.36
10145;BME280;5113;41.822;23.564;2023-04-19T14:41:41;-11330.31;;;14.31;81.25
10145;BME280;5113;41.822;23.564;2023-04-19T14:44:50;-11376.94;;;15.99;70.94
10145;BME280;5113;41.822;23.564;2023-04-19T14:47:56;-11356.78;;;15.26;74.42
10145;BME280;5113;41.822;23.564;2023-04-19T14:51:03;-11354.94;;;15.19;74.05
10145;BME280;5113;41.822;23.564;2023-04-19T14:54:09;-11331.00;;;14.33;74.51
10145;BME280;5113;41.822;23.564;2023-04-19T14:57:15;-11343.41;;;14.78;74.81
10145;BME280;5113;41.822;23.564;2023-04-19T15:00:23;-11327.63;;;14.21;77.59
10145;BME280;5113;41.822;23.564;2023-04-19T15:03:29;-11325.94;;;14.15;78.10
10145;BME280;5113;41.822;23.564;2023-04-19T15:06:36;-11328.75;;;14.25;81.80
10145;BME280;5113;41.822;23.564;2023-04-19T15:09:42;-11330.31;;;14.31;82.73
10145;BME280;5113;41.822;23.564;2023-04-19T15:12:48;-11327.06;;;14.19;81.30
10145;BME280;5113;41.822;23.564;2023-04-19T15:15:56;-11319.59;;;13.92;78.09
10145;BME280;5113;41.822;23.564;2023-04-19T15:19:04;-11309.03;;;13.54;80.68
10145;BME280;5113;41.822;23.564;2023-04-19T15:22:11;-11313.97;;;13.72;79.74
10145;BME280;5113;41.822;23.564;2023-04-19T15:25:17;-11317.50;;;13.84;79.47
10145;BME280;5113;41.822;23.564;2023-04-19T15:28:24;-11318.06;;;13.86;82.61
10145;BME280;5113;41.822;23.564;2023-04-19T15:31:32;-11312.41;;;13.66;85.65
10145;BME280;5113;41.822;23.564;2023-04-19T15:34:38;-11307.78;;;13.49;84.94
10145;BME280;5113;41.822;23.564;2023-04-19T15:37:46;-11296.78;;;13.10;88.20
10145;BME280;5113;41.822;23.564;2023-04-19T15:40:53;-11302.28;;;13.30;88.84
10145;BME280;5113;41.822;23.564;2023-04-19T15:44:00;-11289.75;;;12.84;92.20
10145;BME280;5113;41.822;23.564;2023-04-19T15:47:07;-11285.69;;;12.70;94.12
10145;BME280;5113;41.822;23.564;2023-04-19T15:50:13;-11279.34;;;12.47;93.45
10145;BME280;5113;41.822;23.564;2023-04-19T15:53:20;-11281.44;;;12.54;92.15
10145;BME280;5113;41.822;23.564;2023-04-19T15:56:26;-11282.00;;;12.56;100.00
10145;BME280;5113;41.822;23.564;2023-04-19T15:59:32;-11266.25;;;12.00;100.00
10145;BME280;5113;41.822;23.564;2023-04-19T16:02:40;-11258.38;;;11.71;100.00
10145;BME280;5113;41.822;23.564;2023-04-19T16:05:46;-11262.88;;;11.87;100.00
10145;BME280;5113;41.822;23.564;2023-04-19T16:08:55;-11254.84;;;11.58;100.00
10145;BME280;5113;41.822;23.564;2023-04-19T16:12:01;-11268.38;;;12.07;100.00
10145;BME280;5113;41.822;23.564;2023-04-19T16:15:08;-11269.78;;;12.12;100.00
10145;BME280;5113;41.822;23.564;2023-04-19T16:18:15;-11249.22;;;11.38;100.00